sensor_id;sensor_type;location;lat;lon;timestamp;temperature;humidity
7792;DHT22;3940;49.892;10.886;2022-08-26T00:02:05;22.60;99.90
7792;DHT22;3940;49.892;10.886;2022-08-26T00:04:50;22.50;99.90
7792;DHT22;3940;49.892;10.886;2022-08-26T00:07:34;22.50;99.90
7792;DHT22;3940;49.892;10.886;2022-08-26T00:10:20;22.50;99.90
7792;DHT22;3940;49.892;10.886;2022-08-26T00:13:05;22.50;99.90
7792;DHT22;3940;49.892;10.886;2022-08-26T00:15:49;22.50;99.90
7792;DHT22;3940;49.892;10.886;2022-08-26T00:18:35;22.40;99.90
7792;DHT22;3940;49.892;10.886;2022-08-26T00:21:19;22.30;99.90
7792;DHT22;3940;49.892;10.886;2022-08-26T00:24:03;22.20;99.90
7792;DHT22;3940;49.892;10.886;2022-08-26T00:26:48;22.30;99.90
7792;DHT22;3940;49.892;10.886;2022-08-26T00:29:32;22.30;99.90
7792;DHT22;3940;49.892;10.886;2022-08-26T00:32:17;22.30;99.90
7792;DHT22;3940;49.892;10.886;2022-08-26T00:35:03;22.10;99.90
7792;DHT22;3940;49.892;10.886;2022-08-26T00:37:48;22.00;99.90
7792;DHT22;3940;49.892;10.886;2022-08-26T00:40:35;22.10;99.90
7792;DHT22;3940;49.892;10.886;2022-08-26T00:43:21;22.20;99.90
7792;DHT22;3940;49.892;10.886;2022-08-26T00:46:09;22.20;99.90
7792;DHT22;3940;49.892;10.886;2022-08-26T00:49:04;22.20;99.90
7792;DHT22;3940;49.892;10.886;2022-08-26T00:51:52;22.20;99.90
7792;DHT22;3940;49.892;10.886;2022-08-26T00:54:46;22.20;99.90
7792;DHT22;3940;49.892;10.886;2022-08-26T00:57:33;22.10;99.90
7792;DHT22;3940;49.892;10.886;2022-08-26T01:00:23;22.00;99.90
7792;DHT22;3940;49.892;10.886;2022-08-26T01:03:08;21.90;99.90
7792;DHT22;3940;49.892;10.886;2022-08-26T01:05:56;22.00;99.90
7792;DHT22;3940;49.892;10.886;2022-08-26T01:08:40;22.00;99.90
7792;DHT22;3940;49.892;10.886;2022-08-26T01:11:25;22.00;99.90
7792;DHT22;3940;49.892;10.886;2022-08-26T01:14:11;22.00;99.90
7792;DHT22;3940;49.892;10.886;2022-08-26T01:16:57;22.00;99.90
7792;DHT22;3940;49.892;10.886;2022-08-26T01:19:45;22.00;99.90
7792;DHT22;3940;49.892;10.886;2022-08-26T01:22:46;22.00;99.90
7792;DHT22;3940;49.892;10.886;2022-08-26T01:25:39;22.00;99.90
7792;DHT22;3940;49.892;10.886;2022-08-26T01:28:28;22.00;99.90
7792;DHT22;3940;49.892;10.886;2022-08-26T01:31:15;21.90;99.90
7792;DHT22;3940;49.892;10.886;2022-08-26T01:34:19;21.80;99.90
7792;DHT22;3940;49.892;10.886;2022-08-26T01:37:11;21.70;99.90
7792;DHT22;3940;49.892;10.886;2022-08-26T01:39:56;21.60;99.90
7792;DHT22;3940;49.892;10.886;2022-08-26T01:42:41;21.70;99.90
7792;DHT22;3940;49.892;10.886;2022-08-26T01:45:29;21.60;99.90
7792;DHT22;3940;49.892;10.886;2022-08-26T01:48:18;21.70;99.90
7792;DHT22;3940;49.892;10.886;2022-08-26T01:51:04;21.60;99.90
7792;DHT22;3940;49.892;10.886;2022-08-26T01:53:52;21.60;99.90
7792;DHT22;3940;49.892;10.886;2022-08-26T01:56:38;21.70;99.90
7792;DHT22;3940;49.892;10.886;2022-08-26T01:59:23;21.60;99.90
7792;DHT22;3940;49.892;10.886;2022-08-26T02:02:08;21.70;99.90
7792;DHT22;3940;49.892;10.886;2022-08-26T02:04:56;21.70;99.90
7792;DHT22;3940;49.892;10.886;2022-08-26T02:07:42;21.70;99.90
7792;DHT22;3940;49.892;10.886;2022-08-26T02:10:27;21.70;99.90
7792;DHT22;3940;49.892;10.886;2022-08-26T02:13:11;21.80;99.90
7792;DHT22;3940;49.892;10.886;2022-08-26T02:15:58;21.70;99.90
7792;DHT22;3940;49.892;10.886;2022-08-26T02:18:44;21.70;99.90
7792;DHT22;3940;49.892;10.886;2022-08-26T02:21:30;21.60;99.90
7792;DHT22;3940;49.892;10.886;2022-08-26T02:24:21;21.60;99.90
7792;DHT22;3940;49.892;10.886;2022-08-26T02:27:06;21.50;99.90
7792;DHT22;3940;49.892;10.886;2022-08-26T02:29:56;21.50;99.90
7792;DHT22;3940;49.892;10.886;2022-08-26T02:32:41;21.50;99.90
7792;DHT22;3940;49.892;10.886;2022-08-26T02:35:25;21.40;99.90
7792;DHT22;3940;49.892;10.886;2022-08-26T02:38:10;21.40;99.90
7792;DHT22;3940;49.892;10.886;2022-08-26T02:40:55;21.40;99.90
7792;DHT22;3940;49.892;10.886;2022-08-26T02:43:40;21.40;99.90
7792;DHT22;3940;49.892;10.886;2022-08-26T02:46:24;21.50;99.90
7792;DHT22;3940;49.892;10.886;2022-08-26T02:49:09;21.50;99.90
7792;DHT22;3940;49.892;10.886;2022-08-26T02:51:53;21.40;99.90
7792;DHT22;3940;49.892;10.886;2022-08-26T02:54:38;21.40;99.90
7792;DHT22;3940;49.892;10.886;2022-08-26T02:57:23;21.30;99.90
7792;DHT22;3940;49.892;10.886;2022-08-26T03:00:09;21.30;99.90
7792;DHT22;3940;49.892;10.886;2022-08-26T03:02:55;21.10;99.90
7792;DHT22;3940;49.892;10.886;2022-08-26T03:05:41;21.00;99.90
7792;DHT22;3940;49.892;10.886;2022-08-26T03:08:25;21.00;99.90
7792;DHT22;3940;49.892;10.886;2022-08-26T03:11:10;21.00;99.90
7792;DHT22;3940;49.892;10.886;2022-08-26T03:13:55;21.00;99.90
7792;DHT22;3940;49.892;10.886;2022-08-26T03:16:40;21.00;99.90
7792;DHT22;3940;49.892;10.886;2022-08-26T03:19:25;21.00;99.90
7792;DHT22;3940;49.892;10.886;2022-08-26T03:22:09;20.90;99.90
7792;DHT22;3940;49.892;10.886;2022-08-26T03:24:54;21.00;99.90
7792;DHT22;3940;49.892;10.886;2022-08-26T03:27:38;21.00;99.90
7792;DHT22;3940;49.892;10.886;2022-08-26T03:30:23;21.00;99.90
7792;DHT22;3940;49.892;10.886;2022-08-26T03:33:24;21.00;99.90
7792;DHT22;3940;49.892;10.886;2022-08-26T03:36:09;21.00;99.90
7792;DHT22;3940;49.892;10.886;2022-08-26T03:38:54;20.90;99.90
7792;DHT22;3940;49.892;10.886;2022-08-26T03:41:38;20.90;99.90
7792;DHT22;3940;49.892;10.886;2022-08-26T03:44:23;20.90;99.90
7792;DHT22;3940;49.892;10.886;2022-08-26T03:47:09;20.90;99.90
7792;DHT22;3940;49.892;10.886;2022-08-26T03:49:53;20.90;99.90
7792;DHT22;3940;49.892;10.886;2022-08-26T03:52:38;20.80;99.90
7792;DHT22;3940;49.892;10.886;2022-08-26T03:55:25;20.80;99.90
7792;DHT22;3940;49.892;10.886;2022-08-26T03:58:10;20.90;99.90
7792;DHT22;3940;49.892;10.886;2022-08-26T04:00:54;20.80;99.90
7792;DHT22;3940;49.892;10.886;2022-08-26T04:03:39;20.80;99.90
7792;DHT22;3940;49.892;10.886;2022-08-26T04:06:39;20.70;99.90
7792;DHT22;3940;49.892;10.886;2022-08-26T04:09:27;20.70;99.90
7792;DHT22;3940;49.892;10.886;2022-08-26T04:12:12;20.70;99.90
7792;DHT22;3940;49.892;10.886;2022-08-26T04:14:57;20.70;99.90
7792;DHT22;3940;49.892;10.886;2022-08-26T04:17:43;20.70;99.90
7792;DHT22;3940;49.892;10.886;2022-08-26T04:20:28;20.70;99.90
7792;DHT22;3940;49.892;10.886;2022-08-26T04:23:13;20.60;99.90
7792;DHT22;3940;49.892;10.886;2022-08-26T04:25:59;20.60;99.90
7792;DHT22;3940;49.892;10.886;2022-08-26T04:28:46;20.60;99.90
7792;DHT22;3940;49.892;10.886;2022-08-26T04:31:33;20.50;99.90
7792;DHT22;3940;49.892;10.886;2022-08-26T04:34:17;20.60;99.90
7792;DHT22;3940;49.892;10.886;2022-08-26T04:37:03;20.70;99.90
7792;DHT22;3940;49.892;10.886;2022-08-26T04:39:52;20.70;99.90
7792;DHT22;3940;49.892;10.886;2022-08-26T04:42:36;20.60;99.90
7792;DHT22;3940;49.892;10.886;2022-08-26T04:45:21;20.60;99.90
7792;DHT22;3940;49.892;10.886;2022-08-26T04:48:05;20.60;99.90
7792;DHT22;3940;49.892;10.886;2022-08-26T04:50:50;20.60;99.90
7792;DHT22;3940;49.892;10.886;2022-08-26T04:53:35;20.70;99.90
7792;DHT22;3940;49.892;10.886;2022-08-26T04:56:19;20.50;99.90
7792;DHT22;3940;49.892;10.886;2022-08-26T04:59:06;20.30;99.90
7792;DHT22;3940;49.892;10.886;2022-08-26T05:01:52;20.30;99.90
7792;DHT22;3940;49.892;10.886;2022-08-26T05:04:42;20.40;99.90
7792;DHT22;3940;49.892;10.886;2022-08-26T05:07:27;20.10;99.90
7792;DHT22;3940;49.892;10.886;2022-08-26T05:10:13;19.50;99.90
7792;DHT22;3940;49.892;10.886;2022-08-26T05:12:57;19.50;99.90
7792;DHT22;3940;49.892;10.886;2022-08-26T05:15:44;19.30;99.90
7792;DHT22;3940;49.892;10.886;2022-08-26T05:18:28;19.30;99.90
7792;DHT22;3940;49.892;10.886;2022-08-26T05:21:18;19.30;99.90
7792;DHT22;3940;49.892;10.886;2022-08-26T05:24:03;19.40;99.90
7792;DHT22;3940;49.892;10.886;2022-08-26T05:26:48;19.60;99.90
7792;DHT22;3940;49.892;10.886;2022-08-26T05:29:33;19.60;99.90
7792;DHT22;3940;49.892;10.886;2022-08-26T05:32:17;19.70;99.90
7792;DHT22;3940;49.892;10.886;2022-08-26T05:35:02;19.80;99.90
7792;DHT22;3940;49.892;10.886;2022-08-26T05:37:47;19.80;99.90
7792;DHT22;3940;49.892;10.886;2022-08-26T05:40:35;19.70;99.90
7792;DHT22;3940;49.892;10.886;2022-08-26T05:43:20;19.60;99.90
7792;DHT22;3940;49.892;10.886;2022-08-26T05:46:05;19.70;99.90
7792;DHT22;3940;49.892;10.886;2022-08-26T05:48:50;19.70;99.90
7792;DHT22;3940;49.892;10.886;2022-08-26T05:51:35;19.90;99.90
7792;DHT22;3940;49.892;10.886;2022-08-26T05:54:20;19.80;99.90
7792;DHT22;3940;49.892;10.886;2022-08-26T05:57:04;20.10;99.90
7792;DHT22;3940;49.892;10.886;2022-08-26T05:59:49;20.10;99.90
7792;DHT22;3940;49.892;10.886;2022-08-26T06:02:34;20.10;99.90
7792;DHT22;3940;49.892;10.886;2022-08-26T06:05:18;20.10;99.90
7792;DHT22;3940;49.892;10.886;2022-08-26T06:08:03;20.00;99.90
7792;DHT22;3940;49.892;10.886;2022-08-26T06:10:59;20.10;99.90
7792;DHT22;3940;49.892;10.886;2022-08-26T06:13:46;20.30;99.90
7792;DHT22;3940;49.892;10.886;2022-08-26T06:16:32;20.40;99.90
7792;DHT22;3940;49.892;10.886;2022-08-26T06:19:17;20.40;99.90
7792;DHT22;3940;49.892;10.886;2022-08-26T06:22:02;20.30;99.90
7792;DHT22;3940;49.892;10.886;2022-08-26T06:25:06;20.40;99.90
7792;DHT22;3940;49.892;10.886;2022-08-26T06:28:07;20.30;99.90
7792;DHT22;3940;49.892;10.886;2022-08-26T06:30:52;20.50;99.90
7792;DHT22;3940;49.892;10.886;2022-08-26T06:33:38;20.60;99.90
7792;DHT22;3940;49.892;10.886;2022-08-26T06:36:25;20.40;99.90
7792;DHT22;3940;49.892;10.886;2022-08-26T06:39:12;20.60;99.90
7792;DHT22;3940;49.892;10.886;2022-08-26T06:41:59;20.60;99.90
7792;DHT22;3940;49.892;10.886;2022-08-26T06:44:43;20.70;99.90
7792;DHT22;3940;49.892;10.886;2022-08-26T06:47:27;20.60;99.90
7792;DHT22;3940;49.892;10.886;2022-08-26T06:50:12;20.80;99.90
7792;DHT22;3940;49.892;10.886;2022-08-26T06:52:57;21.00;99.90
7792;DHT22;3940;49.892;10.886;2022-08-26T06:55:43;21.20;99.90
7792;DHT22;3940;49.892;10.886;2022-08-26T06:58:29;21.60;99.90
7792;DHT22;3940;49.892;10.886;2022-08-26T07:01:16;21.60;99.90
7792;DHT22;3940;49.892;10.886;2022-08-26T07:04:03;21.90;99.90
7792;DHT22;3940;49.892;10.886;2022-08-26T07:06:49;22.10;99.90
7792;DHT22;3940;49.892;10.886;2022-08-26T07:09:34;22.40;99.90
7792;DHT22;3940;49.892;10.886;2022-08-26T07:12:20;22.60;99.90
7792;DHT22;3940;49.892;10.886;2022-08-26T07:15:05;22.70;99.90
7792;DHT22;3940;49.892;10.886;2022-08-26T07:17:49;22.80;99.90
7792;DHT22;3940;49.892;10.886;2022-08-26T07:20:36;22.90;99.90
7792;DHT22;3940;49.892;10.886;2022-08-26T07:23:23;22.90;99.90
7792;DHT22;3940;49.892;10.886;2022-08-26T07:26:15;22.90;99.90
7792;DHT22;3940;49.892;10.886;2022-08-26T07:29:00;23.00;99.90
7792;DHT22;3940;49.892;10.886;2022-08-26T07:31:44;23.20;99.90
7792;DHT22;3940;49.892;10.886;2022-08-26T07:34:29;23.40;99.90
7792;DHT22;3940;49.892;10.886;2022-08-26T07:37:15;23.50;99.90
7792;DHT22;3940;49.892;10.886;2022-08-26T07:40:00;23.70;99.90
7792;DHT22;3940;49.892;10.886;2022-08-26T07:43:06;23.90;99.90
7792;DHT22;3940;49.892;10.886;2022-08-26T07:45:51;23.90;99.90
7792;DHT22;3940;49.892;10.886;2022-08-26T07:48:35;23.80;99.90
7792;DHT22;3940;49.892;10.886;2022-08-26T07:51:21;23.90;99.90
7792;DHT22;3940;49.892;10.886;2022-08-26T07:54:06;24.10;99.90
7792;DHT22;3940;49.892;10.886;2022-08-26T07:56:51;24.20;99.90
7792;DHT22;3940;49.892;10.886;2022-08-26T07:59:36;24.30;99.90
7792;DHT22;3940;49.892;10.886;2022-08-26T08:02:21;24.30;99.90
7792;DHT22;3940;49.892;10.886;2022-08-26T08:05:05;24.40;99.90
7792;DHT22;3940;49.892;10.886;2022-08-26T08:07:50;24.60;99.90
7792;DHT22;3940;49.892;10.886;2022-08-26T08:10:36;24.70;99.90
7792;DHT22;3940;49.892;10.886;2022-08-26T08:13:21;24.80;99.90
7792;DHT22;3940;49.892;10.886;2022-08-26T08:16:06;24.90;99.90
7792;DHT22;3940;49.892;10.886;2022-08-26T08:18:51;25.10;99.90
7792;DHT22;3940;49.892;10.886;2022-08-26T08:21:36;25.20;99.90
7792;DHT22;3940;49.892;10.886;2022-08-26T08:24:20;25.30;99.90
7792;DHT22;3940;49.892;10.886;2022-08-26T08:27:05;25.50;99.90
7792;DHT22;3940;49.892;10.886;2022-08-26T08:29:50;25.50;99.90
7792;DHT22;3940;49.892;10.886;2022-08-26T08:32:37;25.70;99.90
7792;DHT22;3940;49.892;10.886;2022-08-26T08:35:22;25.90;99.90
7792;DHT22;3940;49.892;10.886;2022-08-26T08:38:06;26.10;99.90
7792;DHT22;3940;49.892;10.886;2022-08-26T08:40:51;26.10;99.90
7792;DHT22;3940;49.892;10.886;2022-08-26T08:43:55;26.10;99.90
7792;DHT22;3940;49.892;10.886;2022-08-26T08:46:43;25.70;99.90
7792;DHT22;3940;49.892;10.886;2022-08-26T08:49:29;25.80;99.90
7792;DHT22;3940;49.892;10.886;2022-08-26T08:52:27;25.80;99.90
7792;DHT22;3940;49.892;10.886;2022-08-26T08:55:15;25.90;99.90
7792;DHT22;3940;49.892;10.886;2022-08-26T08:58:05;26.40;99.90
7792;DHT22;3940;49.892;10.886;2022-08-26T09:00:56;26.60;99.90
7792;DHT22;3940;49.892;10.886;2022-08-26T09:04:01;26.90;99.90
7792;DHT22;3940;49.892;10.886;2022-08-26T09:06:54;26.80;99.90
7792;DHT22;3940;49.892;10.886;2022-08-26T09:12:37;26.50;99.90
7792;DHT22;3940;49.892;10.886;2022-08-26T09:15:49;26.50;99.90
7792;DHT22;3940;49.892;10.886;2022-08-26T09:18:51;26.60;99.90
7792;DHT22;3940;49.892;10.886;2022-08-26T09:21:39;27.10;99.90
7792;DHT22;3940;49.892;10.886;2022-08-26T09:24:25;27.50;99.90
7792;DHT22;3940;49.892;10.886;2022-08-26T09:27:09;27.70;99.90
7792;DHT22;3940;49.892;10.886;2022-08-26T09:29:58;27.80;99.90
7792;DHT22;3940;49.892;10.886;2022-08-26T09:32:42;28.10;99.90
7792;DHT22;3940;49.892;10.886;2022-08-26T09:35:42;27.70;99.90
7792;DHT22;3940;49.892;10.886;2022-08-26T09:38:32;27.90;99.90
7792;DHT22;3940;49.892;10.886;2022-08-26T09:41:24;28.40;99.90
7792;DHT22;3940;49.892;10.886;2022-08-26T09:44:13;27.80;99.90
7792;DHT22;3940;49.892;10.886;2022-08-26T09:47:01;27.50;99.90
7792;DHT22;3940;49.892;10.886;2022-08-26T09:49:56;28.10;99.90
7792;DHT22;3940;49.892;10.886;2022-08-26T09:52:41;28.60;99.90
7792;DHT22;3940;49.892;10.886;2022-08-26T09:55:25;28.40;99.90
7792;DHT22;3940;49.892;10.886;2022-08-26T09:58:16;28.60;99.90
7792;DHT22;3940;49.892;10.886;2022-08-26T10:01:28;29.20;99.90
7792;DHT22;3940;49.892;10.886;2022-08-26T10:04:21;29.30;99.90
7792;DHT22;3940;49.892;10.886;2022-08-26T10:07:06;29.00;99.90
7792;DHT22;3940;49.892;10.886;2022-08-26T10:09:52;29.40;99.90
7792;DHT22;3940;49.892;10.886;2022-08-26T10:12:45;29.80;99.90
7792;DHT22;3940;49.892;10.886;2022-08-26T10:15:40;30.00;99.90
7792;DHT22;3940;49.892;10.886;2022-08-26T10:18:38;30.30;99.90
7792;DHT22;3940;49.892;10.886;2022-08-26T10:21:27;29.50;99.90
7792;DHT22;3940;49.892;10.886;2022-08-26T10:24:18;29.60;99.90
7792;DHT22;3940;49.892;10.886;2022-08-26T10:30:22;29.90;99.90
7792;DHT22;3940;49.892;10.886;2022-08-26T10:33:12;30.70;99.90
7792;DHT22;3940;49.892;10.886;2022-08-26T10:36:02;30.90;99.90
7792;DHT22;3940;49.892;10.886;2022-08-26T10:38:47;30.50;99.90
7792;DHT22;3940;49.892;10.886;2022-08-26T10:41:36;30.60;99.90
7792;DHT22;3940;49.892;10.886;2022-08-26T10:44:24;31.30;99.90
7792;DHT22;3940;49.892;10.886;2022-08-26T10:47:22;31.10;99.90
7792;DHT22;3940;49.892;10.886;2022-08-26T10:50:08;31.30;99.90
7792;DHT22;3940;49.892;10.886;2022-08-26T10:53:02;31.60;99.90
7792;DHT22;3940;49.892;10.886;2022-08-26T10:56:03;31.20;99.90
7792;DHT22;3940;49.892;10.886;2022-08-26T10:59:20;30.80;99.90
7792;DHT22;3940;49.892;10.886;2022-08-26T11:02:24;29.90;99.90
7792;DHT22;3940;49.892;10.886;2022-08-26T11:05:16;29.50;99.90
7792;DHT22;3940;49.892;10.886;2022-08-26T11:11:40;30.00;99.90
7792;DHT22;3940;49.892;10.886;2022-08-26T11:14:33;30.30;99.90
7792;DHT22;3940;49.892;10.886;2022-08-26T11:17:54;29.70;99.90
7792;DHT22;3940;49.892;10.886;2022-08-26T11:20:41;29.20;99.90
7792;DHT22;3940;49.892;10.886;2022-08-26T11:23:44;28.90;99.90
7792;DHT22;3940;49.892;10.886;2022-08-26T11:26:33;28.40;99.90
7792;DHT22;3940;49.892;10.886;2022-08-26T11:32:52;28.30;99.90
7792;DHT22;3940;49.892;10.886;2022-08-26T11:35:46;28.60;99.90
7792;DHT22;3940;49.892;10.886;2022-08-26T11:38:31;28.60;99.90
7792;DHT22;3940;49.892;10.886;2022-08-26T11:41:20;29.00;99.90
7792;DHT22;3940;49.892;10.886;2022-08-26T11:44:05;28.90;99.90
7792;DHT22;3940;49.892;10.886;2022-08-26T11:46:55;28.70;99.90
7792;DHT22;3940;49.892;10.886;2022-08-26T11:49:40;29.10;99.90
7792;DHT22;3940;49.892;10.886;2022-08-26T11:52:24;30.00;99.90
7792;DHT22;3940;49.892;10.886;2022-08-26T11:55:10;30.10;99.90
7792;DHT22;3940;49.892;10.886;2022-08-26T11:57:59;30.00;99.90
7792;DHT22;3940;49.892;10.886;2022-08-26T12:01:01;30.40;99.90
7792;DHT22;3940;49.892;10.886;2022-08-26T12:04:14;31.00;99.90
7792;DHT22;3940;49.892;10.886;2022-08-26T12:07:01;31.40;99.90
7792;DHT22;3940;49.892;10.886;2022-08-26T12:09:57;30.90;99.90
7792;DHT22;3940;49.892;10.886;2022-08-26T12:12:55;30.60;99.90
7792;DHT22;3940;49.892;10.886;2022-08-26T12:16:06;30.40;99.90
7792;DHT22;3940;49.892;10.886;2022-08-26T12:19:28;30.60;99.90
7792;DHT22;3940;49.892;10.886;2022-08-26T12:22:31;30.60;99.90
7792;DHT22;3940;49.892;10.886;2022-08-26T12:25:36;31.20;99.30
7792;DHT22;3940;49.892;10.886;2022-08-26T12:28:29;32.00;98.90
7792;DHT22;3940;49.892;10.886;2022-08-26T12:34:23;31.50;95.10
7792;DHT22;3940;49.892;10.886;2022-08-26T12:37:10;30.80;94.30
7792;DHT22;3940;49.892;10.886;2022-08-26T12:40:31;30.40;96.80
7792;DHT22;3940;49.892;10.886;2022-08-26T12:43:41;30.40;97.40
7792;DHT22;3940;49.892;10.886;2022-08-26T12:46:27;30.90;96.00
7792;DHT22;3940;49.892;10.886;2022-08-26T12:49:16;31.50;94.90
7792;DHT22;3940;49.892;10.886;2022-08-26T12:52:24;32.40;95.40
7792;DHT22;3940;49.892;10.886;2022-08-26T12:58:21;33.00;93.40
7792;DHT22;3940;49.892;10.886;2022-08-26T13:01:34;33.60;92.00
7792;DHT22;3940;49.892;10.886;2022-08-26T13:04:38;34.70;89.10
7792;DHT22;3940;49.892;10.886;2022-08-26T13:07:25;34.70;88.30
7792;DHT22;3940;49.892;10.886;2022-08-26T13:10:46;33.70;89.60
7792;DHT22;3940;49.892;10.886;2022-08-26T13:13:36;33.30;90.10
7792;DHT22;3940;49.892;10.886;2022-08-26T13:16:26;33.40;87.90
7792;DHT22;3940;49.892;10.886;2022-08-26T13:19:18;32.00;91.50
7792;DHT22;3940;49.892;10.886;2022-08-26T13:22:03;31.60;92.80
7792;DHT22;3940;49.892;10.886;2022-08-26T13:24:52;33.20;91.70
7792;DHT22;3940;49.892;10.886;2022-08-26T13:27:38;33.80;90.00
7792;DHT22;3940;49.892;10.886;2022-08-26T13:30:24;33.40;90.60
7792;DHT22;3940;49.892;10.886;2022-08-26T13:33:10;33.40;90.50
7792;DHT22;3940;49.892;10.886;2022-08-26T13:35:58;33.80;87.40
7792;DHT22;3940;49.892;10.886;2022-08-26T13:38:44;34.10;87.80
7792;DHT22;3940;49.892;10.886;2022-08-26T13:41:28;34.30;84.70
7792;DHT22;3940;49.892;10.886;2022-08-26T13:44:13;34.00;87.30
7792;DHT22;3940;49.892;10.886;2022-08-26T13:47:00;33.40;88.80
7792;DHT22;3940;49.892;10.886;2022-08-26T13:49:45;33.00;90.00
7792;DHT22;3940;49.892;10.886;2022-08-26T13:52:30;32.70;90.30
7792;DHT22;3940;49.892;10.886;2022-08-26T13:55:15;31.70;91.90
7792;DHT22;3940;49.892;10.886;2022-08-26T13:58:02;30.90;94.00
7792;DHT22;3940;49.892;10.886;2022-08-26T14:00:47;30.40;94.10
7792;DHT22;3940;49.892;10.886;2022-08-26T14:03:32;30.00;95.00
7792;DHT22;3940;49.892;10.886;2022-08-26T14:06:18;29.60;97.20
7792;DHT22;3940;49.892;10.886;2022-08-26T14:09:03;29.30;99.30
7792;DHT22;3940;49.892;10.886;2022-08-26T14:11:47;29.00;99.90
7792;DHT22;3940;49.892;10.886;2022-08-26T14:14:31;28.80;99.90
7792;DHT22;3940;49.892;10.886;2022-08-26T14:17:19;28.60;99.90
7792;DHT22;3940;49.892;10.886;2022-08-26T14:20:05;28.30;99.90
7792;DHT22;3940;49.892;10.886;2022-08-26T14:22:52;28.00;99.90
7792;DHT22;3940;49.892;10.886;2022-08-26T14:25:45;27.90;99.90
7792;DHT22;3940;49.892;10.886;2022-08-26T14:28:29;27.80;99.90
7792;DHT22;3940;49.892;10.886;2022-08-26T14:31:15;27.70;99.90
7792;DHT22;3940;49.892;10.886;2022-08-26T14:34:03;27.60;99.90
7792;DHT22;3940;49.892;10.886;2022-08-26T14:36:48;27.40;99.90
7792;DHT22;3940;49.892;10.886;2022-08-26T14:39:33;27.20;99.90
7792;DHT22;3940;49.892;10.886;2022-08-26T14:42:22;27.00;99.90
7792;DHT22;3940;49.892;10.886;2022-08-26T14:45:08;26.90;99.90
7792;DHT22;3940;49.892;10.886;2022-08-26T14:47:56;26.60;99.90
7792;DHT22;3940;49.892;10.886;2022-08-26T14:50:41;26.20;99.90
7792;DHT22;3940;49.892;10.886;2022-08-26T14:53:26;25.90;99.90
7792;DHT22;3940;49.892;10.886;2022-08-26T14:56:21;25.70;99.90
7792;DHT22;3940;49.892;10.886;2022-08-26T14:59:07;25.30;99.90
7792;DHT22;3940;49.892;10.886;2022-08-26T15:01:52;25.30;99.90
7792;DHT22;3940;49.892;10.886;2022-08-26T15:04:37;25.30;99.90
7792;DHT22;3940;49.892;10.886;2022-08-26T15:07:23;25.30;99.90
7792;DHT22;3940;49.892;10.886;2022-08-26T15:10:09;25.30;99.90
7792;DHT22;3940;49.892;10.886;2022-08-26T15:12:55;25.20;99.90
7792;DHT22;3940;49.892;10.886;2022-08-26T15:15:39;25.00;99.90
7792;DHT22;3940;49.892;10.886;2022-08-26T15:18:23;25.00;99.90
7792;DHT22;3940;49.892;10.886;2022-08-26T15:21:07;24.90;99.90
7792;DHT22;3940;49.892;10.886;2022-08-26T15:23:53;24.70;99.90
7792;DHT22;3940;49.892;10.886;2022-08-26T15:26:37;24.40;99.90
7792;DHT22;3940;49.892;10.886;2022-08-26T15:29:21;23.90;99.90
7792;DHT22;3940;49.892;10.886;2022-08-26T15:32:07;23.90;99.90
7792;DHT22;3940;49.892;10.886;2022-08-26T15:34:50;23.60;99.90
7792;DHT22;3940;49.892;10.886;2022-08-26T15:37:36;23.30;99.90
7792;DHT22;3940;49.892;10.886;2022-08-26T15:40:24;23.00;99.90
7792;DHT22;3940;49.892;10.886;2022-08-26T15:43:10;23.20;99.90
7792;DHT22;3940;49.892;10.886;2022-08-26T15:45:55;23.00;99.90
7792;DHT22;3940;49.892;10.886;2022-08-26T15:48:44;22.30;99.90
7792;DHT22;3940;49.892;10.886;2022-08-26T15:51:33;22.50;99.90
7792;DHT22;3940;49.892;10.886;2022-08-26T15:54:21;22.30;99.90
7792;DHT22;3940;49.892;10.886;2022-08-26T15:57:05;22.20;99.90
7792;DHT22;3940;49.892;10.886;2022-08-26T15:59:50;22.20;99.90
7792;DHT22;3940;49.892;10.886;2022-08-26T16:02:35;22.10;99.90
7792;DHT22;3940;49.892;10.886;2022-08-26T16:05:20;22.00;99.90
7792;DHT22;3940;49.892;10.886;2022-08-26T16:08:06;22.40;99.90
7792;DHT22;3940;49.892;10.886;2022-08-26T16:10:51;22.30;99.90
7792;DHT22;3940;49.892;10.886;2022-08-26T16:13:36;22.10;99.90
7792;DHT22;3940;49.892;10.886;2022-08-26T16:16:22;22.20;99.90
7792;DHT22;3940;49.892;10.886;2022-08-26T16:19:07;22.00;99.90
7792;DHT22;3940;49.892;10.886;2022-08-26T16:21:52;21.90;99.90
7792;DHT22;3940;49.892;10.886;2022-08-26T16:24:37;21.70;99.90
7792;DHT22;3940;49.892;10.886;2022-08-26T16:27:23;21.50;99.90
7792;DHT22;3940;49.892;10.886;2022-08-26T16:30:08;21.50;99.90
7792;DHT22;3940;49.892;10.886;2022-08-26T16:32:53;21.40;99.90
7792;DHT22;3940;49.892;10.886;2022-08-26T16:35:41;21.40;99.90
7792;DHT22;3940;49.892;10.886;2022-08-26T16:38:25;21.60;99.90
7792;DHT22;3940;49.892;10.886;2022-08-26T16:41:10;21.70;99.90
7792;DHT22;3940;49.892;10.886;2022-08-26T16:43:54;21.80;99.90
7792;DHT22;3940;49.892;10.886;2022-08-26T16:46:39;21.80;99.90
7792;DHT22;3940;49.892;10.886;2022-08-26T16:49:25;22.10;99.90
7792;DHT22;3940;49.892;10.886;2022-08-26T16:52:10;22.20;99.90
7792;DHT22;3940;49.892;10.886;2022-08-26T16:54:54;22.40;99.90
7792;DHT22;3940;49.892;10.886;2022-08-26T16:57:42;22.70;99.90
7792;DHT22;3940;49.892;10.886;2022-08-26T17:00:29;22.90;99.90
7792;DHT22;3940;49.892;10.886;2022-08-26T17:03:14;23.30;99.90
7792;DHT22;3940;49.892;10.886;2022-08-26T17:05:58;23.50;99.90
7792;DHT22;3940;49.892;10.886;2022-08-26T17:08:43;23.70;99.90
7792;DHT22;3940;49.892;10.886;2022-08-26T17:11:47;23.70;99.90
7792;DHT22;3940;49.892;10.886;2022-08-26T17:14:33;23.80;99.90
7792;DHT22;3940;49.892;10.886;2022-08-26T17:17:17;23.90;99.90
7792;DHT22;3940;49.892;10.886;2022-08-26T17:20:04;23.90;99.90
7792;DHT22;3940;49.892;10.886;2022-08-26T17:23:08;23.70;99.90
7792;DHT22;3940;49.892;10.886;2022-08-26T17:25:54;23.90;99.90
7792;DHT22;3940;49.892;10.886;2022-08-26T17:28:44;23.80;99.90
7792;DHT22;3940;49.892;10.886;2022-08-26T17:31:28;23.80;99.90
7792;DHT22;3940;49.892;10.886;2022-08-26T17:34:13;23.80;99.90
7792;DHT22;3940;49.892;10.886;2022-08-26T17:36:57;23.90;99.90
7792;DHT22;3940;49.892;10.886;2022-08-26T17:40:05;24.10;99.90
7792;DHT22;3940;49.892;10.886;2022-08-26T17:42:50;23.70;99.90
7792;DHT22;3940;49.892;10.886;2022-08-26T17:45:37;23.20;99.90
7792;DHT22;3940;49.892;10.886;2022-08-26T17:48:22;23.40;99.90
7792;DHT22;3940;49.892;10.886;2022-08-26T17:51:10;23.20;99.90
7792;DHT22;3940;49.892;10.886;2022-08-26T17:53:56;23.30;99.90
7792;DHT22;3940;49.892;10.886;2022-08-26T17:56:40;23.50;99.90
7792;DHT22;3940;49.892;10.886;2022-08-26T17:59:28;23.60;99.90
7792;DHT22;3940;49.892;10.886;2022-08-26T18:02:13;23.20;99.90
7792;DHT22;3940;49.892;10.886;2022-08-26T18:04:59;23.00;99.90
7792;DHT22;3940;49.892;10.886;2022-08-26T18:07:43;22.70;99.90
7792;DHT22;3940;49.892;10.886;2022-08-26T18:10:28;22.40;99.90
7792;DHT22;3940;49.892;10.886;2022-08-26T18:13:13;22.40;99.90
7792;DHT22;3940;49.892;10.886;2022-08-26T18:16:18;22.40;99.90
7792;DHT22;3940;49.892;10.886;2022-08-26T18:19:05;22.50;99.90